Time;durP1;ratioP1;P1;durP2;ratioP2;P2;SDS_P1;SDS_P2;PMS_P1;PMS_P2;Temp;Humidity;BMP_temperature;BMP_pressure;BME280_temperature;BME280_humidity;BME280_pressure;Samples;Min_cycle;Max_cycle;Signal;HPM_P1;HPM_P2
2022/01/11 00:00:57;;;;;;;59.25;32.70;;;1.60;91.90;;;;;;5054662;28;20063;-71
2022/01/11 00:03:23;;;;;;;63.72;34.85;;;1.60;91.80;;;;;;5073239;28;20028;-70
2022/01/11 00:05:55;;;;;;;63.15;34.95;;;1.60;91.80;;;;;;5072453;28;20028;-71
2022/01/11 00:08:30;;;;;;;62.25;34.60;;;1.60;91.60;;;;;;5054787;28;20047;-71
2022/01/11 00:11:03;;;;;;;61.03;35.25;;;1.60;91.70;;;;;;5072371;28;20032;-71
2022/01/11 00:13:40;;;;;;;59.97;33.85;;;1.60;91.40;;;;;;5055954;28;20020;-71
2022/01/11 00:16:07;;;;;;;64.90;34.20;;;1.50;91.40;;;;;;5054966;28;20056;-71
2022/01/11 00:18:33;;;;;;;59.17;34.25;;;1.50;91.40;;;;;;5072168;28;20039;-71
2022/01/11 00:20:59;;;;;;;58.28;32.55;;;1.50;91.60;;;;;;5072790;28;20103;-71
2022/01/11 00:25:53;;;;;;;63.75;34.28;;;1.50;91.70;;;;;;5071904;28;20114;-71
2022/01/11 00:28:20;;;;;;;63.38;35.88;;;1.40;91.90;;;;;;5072686;28;20040;-71
2022/01/11 00:30:47;;;;;;;62.75;33.92;;;1.40;92.10;;;;;;5054189;28;20028;-71
2022/01/11 00:33:23;;;;;;;65.03;34.60;;;1.40;92.10;;;;;;5072473;28;20039;-71
2022/01/11 00:35:57;;;;;;;63.92;34.92;;;1.40;92.20;;;;;;5054583;28;20457;-71
2022/01/11 00:38:25;;;;;;;64.05;34.05;;;1.40;92.20;;;;;;5074993;28;20472;-71
2022/01/11 00:40:54;;;;;;;69.30;34.53;;;1.40;92.00;;;;;;5075407;28;20461;-71
2022/01/11 00:43:22;;;;;;;63.85;34.63;;;1.40;92.10;;;;;;5073725;28;20490;-70
2022/01/11 00:45:49;;;;;;;61.65;33.75;;;1.40;91.90;;;;;;5072162;28;20469;-70
2022/01/11 00:48:16;;;;;;;63.83;34.63;;;1.40;92.10;;;;;;5054794;28;20119;-71
2022/01/11 00:50:42;;;;;;;66.00;35.17;;;1.40;92.00;;;;;;5072324;28;20028;-71
2022/01/11 00:53:09;;;;;;;67.47;35.33;;;1.40;91.90;;;;;;5054121;28;20024;-72
2022/01/11 00:55:35;;;;;;;62.13;35.22;;;1.40;91.90;;;;;;5054401;28;20051;-71
2022/01/11 00:58:05;;;;;;;68.47;36.10;;;1.40;91.80;;;;;;5072867;28;20028;-72
2022/01/11 01:00:33;;;;;;;61.92;34.35;;;1.40;91.80;;;;;;5074075;28;20032;-71
2022/01/11 01:02:59;;;;;;;63.15;33.13;;;1.40;91.50;;;;;;5072809;28;20021;-71
2022/01/11 01:05:25;;;;;;;65.70;35.55;;;1.40;91.70;;;;;;5073660;28;20116;-71
2022/01/11 01:07:52;;;;;;;62.83;33.70;;;1.40;91.50;;;;;;5072334;28;20078;-71
2022/01/11 01:10:26;;;;;;;64.45;34.17;;;1.40;91.80;;;;;;5072801;28;20024;-71
2022/01/11 01:12:57;;;;;;;60.38;33.17;;;1.40;91.80;;;;;;5071844;28;20381;-71
2022/01/11 01:15:24;;;;;;;60.40;33.03;;;1.30;91.60;;;;;;5072365;28;20043;-71
2022/01/11 01:17:51;;;;;;;66.28;34.33;;;1.30;91.90;;;;;;5071538;28;20397;-71
2022/01/11 01:20:17;;;;;;;65.15;34.35;;;1.30;91.90;;;;;;5072181;28;20158;-72
2022/01/11 01:22:42;;;;;;;61.75;33.22;;;1.30;92.00;;;;;;5071650;28;20103;-71
2022/01/11 01:25:09;;;;;;;60.90;31.17;;;1.30;91.90;;;;;;5072131;28;20107;-72
2022/01/11 01:27:34;;;;;;;62.55;32.00;;;1.20;91.80;;;;;;5071987;28;20461;-71
2022/01/11 01:30:00;;;;;;;58.33;31.80;;;1.20;91.90;;;;;;5071505;28;20040;-71
2022/01/11 01:32:26;;;;;;;63.22;33.38;;;1.20;92.00;;;;;;5072011;28;20025;-71
2022/01/11 01:34:53;;;;;;;60.28;32.22;;;1.20;92.20;;;;;;5071314;28;20454;-71
2022/01/11 01:37:19;;;;;;;57.60;30.92;;;1.10;92.20;;;;;;5072081;28;20024;-71
2022/01/11 01:39:44;;;;;;;58.65;32.20;;;1.10;92.30;;;;;;5075204;28;20453;-71
2022/01/11 01:42:13;;;;;;;59.83;30.88;;;1.10;92.30;;;;;;5075420;28;20025;-71
2022/01/11 01:44:42;;;;;;;55.70;29.25;;;1.10;92.30;;;;;;5075119;28;20126;-71
2022/01/11 01:47:08;;;;;;;55.33;30.02;;;1.10;92.10;;;;;;5075277;28;20024;-70
2022/01/11 01:49:37;;;;;;;54.53;28.20;;;1.10;92.10;;;;;;5075368;28;20037;-71
2022/01/11 01:52:03;;;;;;;56.38;28.83;;;1.10;92.20;;;;;;5075041;28;20107;-71
2022/01/11 01:54:29;;;;;;;53.15;28.80;;;1.10;92.20;;;;;;5075205;28;20049;-71
2022/01/11 01:56:55;;;;;;;54.88;27.77;;;1.10;92.20;;;;;;5074639;28;20035;-71
2022/01/11 01:59:21;;;;;;;53.60;27.33;;;1.00;92.20;;;;;;5075525;28;20032;-71
2022/01/11 02:01:48;;;;;;;53.22;28.77;;;1.00;92.30;;;;;;5074778;28;20385;-71
2022/01/11 02:04:17;;;;;;;51.60;28.25;;;1.10;92.30;;;;;;5075371;28;20044;-71
2022/01/11 02:06:43;;;;;;;51.10;28.27;;;1.10;92.20;;;;;;5074769;28;20047;-71
2022/01/11 02:09:12;;;;;;;52.83;28.90;;;1.10;92.40;;;;;;5075162;28;20033;-71
2022/01/11 02:11:38;;;;;;;54.05;28.45;;;1.10;92.50;;;;;;5075474;28;20063;-71
2022/01/11 02:14:04;;;;;;;53.58;29.83;;;1.10;92.50;;;;;;5074696;28;20032;-71
2022/01/11 02:16:29;;;;;;;53.58;28.35;;;1.10;92.30;;;;;;5074866;28;20484;-71
2022/01/11 02:18:55;;;;;;;53.45;28.50;;;1.10;92.20;;;;;;5074495;28;20037;-72
2022/01/11 02:21:22;;;;;;;47.15;27.17;;;1.10;92.10;;;;;;5057116;28;20064;-70
2022/01/11 02:23:50;;;;;;;47.35;24.88;;;1.10;92.00;;;;;;5074448;28;20480;-71
2022/01/11 02:26:16;;;;;;;46.72;26.30;;;1.10;91.80;;;;;;5074925;28;20036;-70
2022/01/11 02:28:42;;;;;;;44.47;24.55;;;1.10;91.50;;;;;;5074722;28;20037;-71
2022/01/11 02:31:12;;;;;;;48.42;25.00;;;1.10;91.20;;;;;;5074738;28;20024;-70
2022/01/11 02:33:54;;;;;;;46.08;25.33;;;1.10;91.30;;;;;;5074705;28;20035;-70
2022/01/11 02:36:31;;;;;;;51.55;26.08;;;1.10;91.00;;;;;;5074842;28;20089;-71
2022/01/11 02:38:58;;;;;;;48.55;25.15;;;1.10;91.00;;;;;;5074255;28;20060;-70
2022/01/11 02:41:27;;;;;;;47.45;25.75;;;1.00;91.00;;;;;;5074671;28;20035;-70
2022/01/11 02:43:53;;;;;;;49.65;26.67;;;1.00;91.10;;;;;;5074042;28;20027;-71
2022/01/11 02:46:21;;;;;;;48.05;26.27;;;1.00;91.00;;;;;;5074573;28;20040;-71
2022/01/11 02:48:50;;;;;;;48.97;25.92;;;1.00;91.00;;;;;;5073509;28;20032;-71
2022/01/11 02:51:19;;;;;;;44.25;25.83;;;1.00;91.00;;;;;;5074840;28;20020;-71
2022/01/11 02:53:47;;;;;;;47.78;25.92;;;1.00;91.10;;;;;;5073884;28;20036;-71
2022/01/11 02:56:14;;;;;;;51.58;27.02;;;1.00;91.10;;;;;;5074438;28;20048;-71
2022/01/11 02:58:40;;;;;;;47.45;25.92;;;1.00;91.00;;;;;;5074097;28;20028;-71
2022/01/11 03:01:07;;;;;;;45.92;25.90;;;1.00;90.90;;;;;;5073396;28;20040;-71
2022/01/11 03:03:33;;;;;;;48.60;26.48;;;1.00;91.00;;;;;;5074586;28;20024;-71
2022/01/11 03:06:02;;;;;;;48.90;26.02;;;1.00;91.00;;;;;;5073591;28;20024;-71
2022/01/11 03:08:41;;;;;;;48.50;25.15;;;1.00;90.90;;;;;;5073994;28;20136;-71
2022/01/11 03:11:07;;;;;;;48.13;25.92;;;1.00;90.90;;;;;;5073539;28;20078;-71
2022/01/11 03:13:35;;;;;;;50.45;26.92;;;1.00;90.80;;;;;;5074029;28;20028;-71
2022/01/11 03:16:01;;;;;;;50.17;26.13;;;1.00;90.70;;;;;;5073315;28;20483;-71
2022/01/11 03:18:27;;;;;;;48.47;26.10;;;1.00;90.80;;;;;;5074268;28;20028;-71
2022/01/11 03:20:53;;;;;;;52.40;26.25;;;1.00;90.90;;;;;;5073077;28;20355;-71
2022/01/11 03:23:19;;;;;;;45.78;26.00;;;1.00;91.00;;;;;;5073740;28;20454;-70
2022/01/11 03:25:47;;;;;;;47.38;25.85;;;1.00;91.10;;;;;;5073425;28;20028;-70
2022/01/11 03:28:14;;;;;;;48.33;25.70;;;1.00;91.00;;;;;;5073553;28;20037;-70
2022/01/11 03:30:39;;;;;;;47.25;26.13;;;1.00;90.70;;;;;;5073632;28;20020;-70
2022/01/11 03:33:08;;;;;;;50.88;25.67;;;1.00;90.70;;;;;;5073094;28;20257;-70
2022/01/11 03:35:35;;;;;;;47.38;25.80;;;1.00;90.50;;;;;;5073216;28;20480;-70
2022/01/11 03:38:01;;;;;;;47.00;25.88;;;1.00;90.60;;;;;;5072718;28;20031;-71
2022/01/11 03:40:27;;;;;;;48.58;25.80;;;1.00;90.70;;;;;;5073027;28;20477;-70
2022/01/11 03:42:54;;;;;;;47.92;25.17;;;1.00;90.70;;;;;;5072952;28;20033;-70
2022/01/11 03:45:24;;;;;;;49.40;26.88;;;1.00;90.60;;;;;;5073372;28;20052;-71
2022/01/11 03:47:53;;;;;;;47.33;25.67;;;1.00;90.60;;;;;;5072419;28;20063;-70
2022/01/11 03:50:19;;;;;;;50.95;25.77;;;1.00;90.60;;;;;;5072995;28;20033;-70
2022/01/11 03:52:45;;;;;;;48.85;26.42;;;1.00;90.60;;;;;;5073113;28;20086;-71
2022/01/11 03:55:15;;;;;;;50.78;27.10;;;1.00;90.60;;;;;;5077154;28;20044;-71
2022/01/11 03:57:42;;;;;;;47.47;25.85;;;1.00;90.60;;;;;;5079011;28;20088;-71
2022/01/11 04:00:11;;;;;;;47.38;25.55;;;1.00;90.50;;;;;;5077152;28;20040;-71
2022/01/11 04:02:37;;;;;;;49.80;25.92;;;1.00;90.50;;;;;;5073925;28;20484;-71
2022/01/11 04:05:03;;;;;;;46.03;25.50;;;1.00;90.50;;;;;;5072436;28;20032;-71
2022/01/11 04:07:29;;;;;;;53.40;27.25;;;1.00;90.30;;;;;;5073566;28;20024;-71
2022/01/11 04:09:56;;;;;;;47.10;25.45;;;0.90;90.50;;;;;;5075126;28;20047;-71
2022/01/11 04:12:22;;;;;;;44.53;23.95;;;1.00;90.50;;;;;;5074192;28;20032;-71
2022/01/11 04:14:48;;;;;;;49.45;26.13;;;1.00;90.70;;;;;;5073269;28;20028;-71
2022/01/11 04:17:15;;;;;;;48.80;26.13;;;0.90;90.60;;;;;;5072893;28;20043;-71
2022/01/11 04:19:41;;;;;;;48.28;25.67;;;1.00;90.70;;;;;;5073044;28;20032;-71
2022/01/11 04:22:07;;;;;;;48.78;25.48;;;1.00;90.70;;;;;;5072458;28;20029;-70
2022/01/11 04:24:33;;;;;;;45.60;25.92;;;0.90;90.60;;;;;;5073007;28;20107;-71
2022/01/11 04:26:58;;;;;;;48.45;26.90;;;0.90;90.60;;;;;;5072224;28;20056;-70
2022/01/11 04:29:24;;;;;;;52.95;26.70;;;1.00;90.80;;;;;;5072656;28;20088;-70
2022/01/11 04:31:50;;;;;;;51.90;26.77;;;0.90;90.70;;;;;;5074850;28;20032;-71
2022/01/11 04:34:16;;;;;;;50.03;26.55;;;1.00;90.80;;;;;;5076837;28;20085;-71
2022/01/11 04:36:42;;;;;;;52.90;28.15;;;0.90;90.80;;;;;;5077389;28;20063;-71
2022/01/11 04:39:10;;;;;;;50.80;26.52;;;1.00;90.90;;;;;;5072538;28;20037;-70
2022/01/11 04:41:36;;;;;;;50.88;27.08;;;0.90;90.80;;;;;;5072881;28;20036;-70
2022/01/11 04:44:02;;;;;;;50.08;26.33;;;1.00;91.00;;;;;;5072309;28;20025;-70
2022/01/11 04:46:28;;;;;;;46.33;25.75;;;1.00;91.00;;;;;;5073000;28;20162;-70
2022/01/11 04:48:54;;;;;;;50.85;27.23;;;1.00;91.00;;;;;;5072031;28;20123;-70
2022/01/11 04:51:21;;;;;;;48.50;26.40;;;1.00;90.90;;;;;;5072373;28;20029;-70
2022/01/11 04:53:47;;;;;;;52.72;27.30;;;1.00;90.60;;;;;;5072179;28;20039;-71
2022/01/11 04:56:14;;;;;;;49.95;26.33;;;1.00;90.50;;;;;;5072014;28;20078;-71
2022/01/11 04:58:39;;;;;;;51.40;27.35;;;1.00;90.20;;;;;;5072385;28;20029;-71
2022/01/11 05:01:05;;;;;;;50.50;27.20;;;1.00;90.10;;;;;;5071613;28;20396;-70
2022/01/11 05:03:31;;;;;;;50.33;26.48;;;0.90;90.20;;;;;;5072402;28;20021;-70
2022/01/11 05:05:57;;;;;;;52.33;26.63;;;0.90;90.20;;;;;;5071433;28;20483;-70
2022/01/11 05:08:23;;;;;;;49.60;26.83;;;0.90;90.30;;;;;;5072226;28;20106;-70
2022/01/11 05:10:49;;;;;;;48.85;26.25;;;1.00;90.30;;;;;;5072377;28;20024;-70
2022/01/11 05:13:17;;;;;;;47.58;26.27;;;0.90;90.30;;;;;;5072847;28;20025;-71
2022/01/11 05:15:43;;;;;;;54.72;25.67;;;1.00;90.30;;;;;;5075890;28;20424;-71
2022/01/11 05:18:10;;;;;;;46.67;23.65;;;0.90;90.20;;;;;;5075320;28;20046;-71
2022/01/11 05:20:36;;;;;;;49.13;25.77;;;0.90;90.10;;;;;;5075816;28;20028;-70
2022/01/11 05:23:02;;;;;;;48.05;25.20;;;0.90;89.80;;;;;;5057679;28;20534;-70
2022/01/11 05:25:28;;;;;;;47.58;25.48;;;0.90;89.70;;;;;;5076076;28;20024;-70
2022/01/11 05:27:54;;;;;;;49.10;25.33;;;0.90;89.90;;;;;;5075955;28;20036;-70
2022/01/11 05:30:20;;;;;;;48.63;24.13;;;0.90;90.00;;;;;;5075947;28;20044;-70
2022/01/11 05:32:48;;;;;;;50.67;25.50;;;0.90;90.00;;;;;;5075585;28;20028;-70
2022/01/11 05:35:15;;;;;;;44.53;23.92;;;0.90;90.00;;;;;;5075270;28;20056;-70
2022/01/11 05:37:41;;;;;;;45.67;24.88;;;0.90;89.80;;;;;;5075797;28;20078;-70
2022/01/11 05:40:08;;;;;;;45.60;24.08;;;0.90;89.90;;;;;;5075267;28;20033;-70
2022/01/11 05:42:34;;;;;;;43.83;21.95;;;0.90;89.60;;;;;;5075743;28;20028;-70
2022/01/11 05:44:59;;;;;;;46.97;23.95;;;0.90;88.70;;;;;;5075145;28;20519;-70
2022/01/11 05:47:25;;;;;;;48.88;24.25;;;0.90;88.70;;;;;;5075528;28;20067;-71
2022/01/11 05:49:51;;;;;;;46.65;24.73;;;0.90;88.70;;;;;;5075571;28;20122;-70
2022/01/11 05:52:17;;;;;;;44.35;22.70;;;0.80;88.60;;;;;;5074739;28;20430;-70
2022/01/11 05:54:43;;;;;;;41.85;22.88;;;0.80;88.70;;;;;;5074460;28;20386;-70
2022/01/11 05:57:09;;;;;;;44.25;23.63;;;0.80;89.40;;;;;;5074666;28;20029;-70
2022/01/11 05:59:34;;;;;;;41.72;22.85;;;0.80;88.60;;;;;;5075342;28;20024;-70
2022/01/11 06:02:00;;;;;;;44.20;23.55;;;0.80;89.00;;;;;;5074722;28;20020;-70
2022/01/11 06:04:26;;;;;;;46.92;24.33;;;0.80;89.30;;;;;;5075060;28;20024;-71
2022/01/11 06:06:52;;;;;;;47.95;24.63;;;0.80;89.20;;;;;;5075237;28;20060;-70
2022/01/11 06:09:18;;;;;;;47.10;24.77;;;0.80;88.90;;;;;;5074576;28;20116;-70
2022/01/11 06:11:44;;;;;;;50.88;24.92;;;0.80;88.50;;;;;;5075155;28;20533;-70
2022/01/11 06:14:09;;;;;;;49.78;24.40;;;0.80;88.60;;;;;;5074677;28;20029;-70
2022/01/11 06:16:36;;;;;;;45.35;24.30;;;0.80;88.50;;;;;;5056792;28;20389;-70
2022/01/11 06:19:03;;;;;;;44.30;23.30;;;0.80;88.20;;;;;;5074319;28;20469;-70
2022/01/11 06:21:29;;;;;;;47.38;24.63;;;0.80;87.70;;;;;;5075172;28;20025;-70
2022/01/11 06:23:55;;;;;;;50.85;24.98;;;0.80;88.00;;;;;;5074553;28;20082;-70
2022/01/11 06:26:21;;;;;;;45.65;25.20;;;0.80;88.10;;;;;;5074734;28;20032;-73
2022/01/11 06:28:47;;;;;;;48.40;25.23;;;0.80;87.80;;;;;;5074573;28;20041;-71
2022/01/11 06:31:13;;;;;;;44.78;23.08;;;0.70;87.60;;;;;;5073783;28;20103;-71
2022/01/11 06:33:40;;;;;;;43.88;23.58;;;0.80;87.70;;;;;;5073963;28;20027;-71
2022/01/11 06:36:11;;;;;;;51.97;25.90;;;0.70;87.60;;;;;;5073671;28;20427;-71
2022/01/11 06:38:38;;;;;;;47.45;24.98;;;0.70;87.80;;;;;;5073785;28;20496;-71
2022/01/11 06:41:04;;;;;;;47.13;23.08;;;0.70;88.00;;;;;;5073340;28;20060;-71
2022/01/11 06:43:29;;;;;;;50.63;25.20;;;0.70;87.70;;;;;;5074028;28;20057;-71
2022/01/11 06:45:55;;;;;;;46.40;23.95;;;0.80;87.60;;;;;;5074219;28;20028;-72
2022/01/11 06:48:21;;;;;;;42.08;24.02;;;0.70;87.40;;;;;;5073536;28;20086;-71
2022/01/11 06:50:47;;;;;;;47.78;24.52;;;0.80;87.10;;;;;;5074256;28;20107;-71
2022/01/11 06:53:13;;;;;;;45.40;24.50;;;0.80;86.90;;;;;;5073755;28;20028;-72
2022/01/11 06:55:39;;;;;;;44.67;23.95;;;0.80;86.90;;;;;;5074127;28;20040;-70
2022/01/11 06:58:05;;;;;;;41.38;22.65;;;0.70;86.80;;;;;;5073424;28;20021;-70
2022/01/11 07:00:30;;;;;;;45.42;22.58;;;0.70;86.40;;;;;;5074488;28;20025;-71
2022/01/11 07:02:56;;;;;;;50.50;23.98;;;0.70;86.00;;;;;;5056057;28;20430;-72
2022/01/11 07:05:22;;;;;;;40.55;24.08;;;0.70;86.00;;;;;;5073190;28;20039;-72
2022/01/11 07:07:48;;;;;;;44.38;24.60;;;0.70;85.60;;;;;;5074102;28;20035;-71
2022/01/11 07:10:14;;;;;;;42.28;22.10;;;0.70;85.30;;;;;;5073061;28;20461;-70
2022/01/11 07:12:58;;;;;;;44.25;22.70;;;0.70;85.50;;;;;;5073895;28;20074;-71
2022/01/11 07:15:24;;;;;;;39.72;21.38;;;0.70;85.10;;;;;;5073360;28;20021;-71
2022/01/11 07:17:49;;;;;;;42.28;21.88;;;0.70;84.40;;;;;;5055765;28;20074;-72
2022/01/11 07:20:15;;;;;;;41.15;23.17;;;0.60;83.70;;;;;;5073265;28;20111;-71
2022/01/11 07:22:41;;;;;;;42.47;23.00;;;0.70;83.80;;;;;;5073821;28;20029;-71
2022/01/11 07:25:07;;;;;;;55.15;23.63;;;0.70;84.10;;;;;;5073110;28;20029;-71
2022/01/11 07:27:34;;;;;;;40.40;22.73;;;0.60;83.80;;;;;;5073662;28;20028;-73
2022/01/11 07:32:44;;;;;;;42.75;24.15;;;0.70;84.20;;;;;;5073526;28;20035;-71
2022/01/11 07:35:10;;;;;;;46.17;23.40;;;0.70;84.30;;;;;;5072660;28;20457;-71
2022/01/11 07:37:36;;;;;;;53.60;25.10;;;0.70;84.70;;;;;;5072932;28;20382;-71
2022/01/11 07:40:02;;;;;;;51.28;24.15;;;0.70;84.90;;;;;;5072957;28;20036;-71
2022/01/11 07:42:28;;;;;;;46.75;24.88;;;0.70;84.90;;;;;;5073066;28;20024;-72
2022/01/11 07:44:54;;;;;;;45.83;23.40;;;0.70;85.10;;;;;;5073103;28;20032;-72
2022/01/11 07:47:20;;;;;;;48.13;23.95;;;0.80;84.90;;;;;;5072531;28;20098;-73
2022/01/11 07:49:47;;;;;;;46.83;24.20;;;0.80;84.70;;;;;;5072944;28;20146;-72
2022/01/11 07:52:13;;;;;;;45.83;23.40;;;0.70;84.50;;;;;;5072685;28;20025;-72
2022/01/11 07:54:40;;;;;;;44.97;24.08;;;0.70;84.20;;;;;;5072866;28;20052;-71
2022/01/11 07:57:06;;;;;;;43.50;23.08;;;0.80;84.40;;;;;;5072496;28;20035;-71
2022/01/11 07:59:32;;;;;;;43.97;23.90;;;0.80;84.20;;;;;;5072969;28;20583;-71
2022/01/11 08:01:59;;;;;;;42.83;21.85;;;0.80;83.90;;;;;;5072656;28;20055;-71
2022/01/11 08:04:26;;;;;;;46.28;23.52;;;0.70;83.50;;;;;;5072282;28;20494;-71
2022/01/11 08:06:52;;;;;;;45.15;22.73;;;0.80;83.70;;;;;;5072819;28;20070;-72
2022/01/11 08:09:18;;;;;;;45.08;22.58;;;0.80;83.70;;;;;;5072019;28;20064;-72
2022/01/11 08:11:44;;;;;;;47.00;22.90;;;0.80;83.40;;;;;;5072925;28;20051;-72
2022/01/11 08:14:10;;;;;;;44.53;22.95;;;0.80;83.10;;;;;;5072118;28;20024;-71
2022/01/11 08:16:35;;;;;;;43.53;22.90;;;0.80;82.90;;;;;;5054872;28;20115;-72
2022/01/11 08:19:01;;;;;;;40.95;21.80;;;0.80;82.40;;;;;;5072602;28;20180;-72
2022/01/11 08:21:27;;;;;;;45.00;23.73;;;0.80;82.50;;;;;;5072187;28;20040;-71
2022/01/11 08:23:52;;;;;;;44.42;21.42;;;0.80;82.50;;;;;;5072631;28;20103;-71
2022/01/11 08:26:18;;;;;;;39.63;22.17;;;0.80;82.30;;;;;;5072002;28;20074;-71
2022/01/11 08:28:44;;;;;;;42.13;22.17;;;0.80;82.40;;;;;;5072700;28;20110;-72
2022/01/11 08:31:10;;;;;;;44.78;22.15;;;0.80;82.30;;;;;;5072106;28;20025;-71
2022/01/11 08:33:55;;;;;;;44.20;22.15;;;0.80;81.50;;;;;;5072387;28;20029;-71
2022/01/11 08:36:20;;;;;;;43.75;22.27;;;0.70;81.70;;;;;;5071920;28;20032;-73
2022/01/11 08:38:46;;;;;;;41.88;21.88;;;0.70;82.20;;;;;;5072608;28;20417;-72
2022/01/11 08:41:13;;;;;;;41.55;21.48;;;0.70;82.70;;;;;;5072049;28;20028;-71
2022/01/11 08:43:39;;;;;;;39.20;21.17;;;0.80;83.00;;;;;;5072347;28;20029;-72
2022/01/11 08:46:04;;;;;;;46.78;22.25;;;0.80;83.00;;;;;;5054667;28;20074;-71
2022/01/11 08:48:49;;;;;;;45.22;23.13;;;0.80;82.20;;;;;;5071652;28;20540;-72
2022/01/11 08:51:33;;;;;;;44.53;21.98;;;0.80;82.30;;;;;;5072134;28;20059;-71
2022/01/11 08:53:59;;;;;;;47.20;23.00;;;0.90;82.50;;;;;;5073427;28;20029;-72
2022/01/11 08:56:25;;;;;;;41.03;21.10;;;0.90;82.30;;;;;;5073344;28;20098;-72
2022/01/11 08:58:51;;;;;;;38.20;21.70;;;0.90;81.80;;;;;;5075253;28;20103;-71
2022/01/11 09:01:17;;;;;;;41.53;22.02;;;0.90;81.50;;;;;;5074885;28;20024;-71
2022/01/11 09:03:42;;;;;;;44.80;22.98;;;0.90;81.60;;;;;;5075129;28;20078;-72
2022/01/11 09:06:09;;;;;;;41.47;21.65;;;0.90;81.70;;;;;;5074880;28;20025;-67
2022/01/11 09:08:36;;;;;;;43.08;21.77;;;0.90;81.80;;;;;;5075710;28;20060;-72
2022/01/11 09:11:04;;;;;;;41.15;21.70;;;0.90;81.60;;;;;;5056576;28;20385;-71
2022/01/11 09:13:30;;;;;;;41.97;21.25;;;0.90;81.30;;;;;;5071500;28;20477;-71
2022/01/11 09:15:56;;;;;;;39.83;21.27;;;0.90;81.30;;;;;;5072389;28;20032;-71
2022/01/11 09:18:21;;;;;;;42.95;21.52;;;0.90;80.90;;;;;;5071472;28;20024;-71
2022/01/11 09:20:47;;;;;;;36.67;20.85;;;0.80;80.70;;;;;;5072186;28;20480;-71
2022/01/11 09:23:13;;;;;;;38.08;22.02;;;0.80;81.20;;;;;;5071516;28;20095;-70
2022/01/11 09:25:39;;;;;;;39.65;21.75;;;0.90;81.00;;;;;;5071831;28;20017;-71
2022/01/11 09:28:05;;;;;;;41.03;21.70;;;0.90;80.80;;;;;;5071986;28;20119;-71
2022/01/11 09:30:31;;;;;;;42.00;21.67;;;0.90;81.20;;;;;;5071526;28;20608;-71
2022/01/11 09:32:56;;;;;;;40.30;21.23;;;0.90;80.90;;;;;;5072443;28;20523;-72
2022/01/11 09:35:22;;;;;;;43.15;22.42;;;1.00;81.00;;;;;;5073242;28;20029;-72
2022/01/11 09:37:49;;;;;;;43.63;21.50;;;0.90;80.90;;;;;;5073253;28;20082;-72
2022/01/11 09:40:16;;;;;;;39.40;21.85;;;0.90;81.30;;;;;;5072445;28;20029;-71
2022/01/11 09:42:42;;;;;;;39.83;22.42;;;1.00;81.20;;;;;;5071841;28;20033;-72
2022/01/11 09:45:10;;;;;;;38.90;21.40;;;1.00;80.80;;;;;;5054018;28;20103;-71
2022/01/11 09:47:38;;;;;;;40.40;21.73;;;1.00;80.20;;;;;;5073995;28;20036;-72
2022/01/11 09:50:06;;;;;;;33.95;19.38;;;1.00;80.40;;;;;;5059152;28;20044;-72
2022/01/11 09:52:32;;;;;;;39.28;20.33;;;1.10;80.30;;;;;;5074006;28;20029;-72
2022/01/11 09:54:58;;;;;;;37.90;19.65;;;1.10;80.10;;;;;;5072231;28;20040;-71
2022/01/11 09:57:23;;;;;;;39.70;21.27;;;1.20;79.90;;;;;;5071046;28;20052;-71
2022/01/11 09:59:50;;;;;;;39.70;21.92;;;1.30;79.80;;;;;;5074868;28;20028;-72
2022/01/11 10:02:16;;;;;;;41.40;21.30;;;1.30;78.90;;;;;;5082929;28;20044;-71
2022/01/11 10:04:42;;;;;;;41.80;22.25;;;1.40;79.30;;;;;;5082594;28;20032;-72
2022/01/11 10:07:09;;;;;;;41.15;20.63;;;1.50;78.80;;;;;;5076780;28;20056;-71
2022/01/11 10:09:44;;;;;;;41.75;22.80;;;1.50;78.20;;;;;;5075062;28;20040;-71
2022/01/11 10:12:12;;;;;;;39.40;21.80;;;1.50;77.70;;;;;;5075034;28;20098;-71
2022/01/11 10:14:39;;;;;;;38.08;21.08;;;1.50;78.00;;;;;;5075080;28;20040;-71
2022/01/11 10:17:13;;;;;;;42.78;22.05;;;1.50;77.50;;;;;;5075082;28;20050;-71
2022/01/11 10:19:41;;;;;;;37.03;21.05;;;1.50;77.20;;;;;;5075023;28;20063;-71
2022/01/11 10:22:14;;;;;;;41.90;22.15;;;1.50;76.00;;;;;;5057043;28;20043;-71
2022/01/11 10:24:45;;;;;;;42.30;21.40;;;1.60;76.30;;;;;;5074952;28;20066;-71
2022/01/11 10:27:33;;;;;;;41.08;19.92;;;1.60;75.60;;;;;;5074711;28;20028;-71
2022/01/11 10:30:10;;;;;;;35.80;19.85;;;1.70;75.20;;;;;;5074542;28;20032;-71
2022/01/11 10:32:40;;;;;;;36.22;19.85;;;1.80;74.70;;;;;;5074220;28;20048;-71
2022/01/11 10:35:08;;;;;;;43.42;21.60;;;1.90;74.40;;;;;;5056651;28;20021;-71
2022/01/11 10:37:37;;;;;;;38.60;20.90;;;1.90;74.20;;;;;;5074196;28;20051;-72
2022/01/11 10:40:09;;;;;;;37.35;20.08;;;2.00;74.70;;;;;;5056588;28;20362;-71
2022/01/11 10:42:38;;;;;;;37.92;20.85;;;2.10;73.80;;;;;;5073894;28;20188;-71
2022/01/11 10:45:06;;;;;;;41.45;20.73;;;2.20;73.40;;;;;;5074403;28;20025;-71
2022/01/11 10:47:38;;;;;;;38.05;20.23;;;2.30;73.10;;;;;;5074271;28;20369;-71
2022/01/11 10:50:11;;;;;;;40.78;19.98;;;2.30;71.00;;;;;;5074337;28;20032;-71
2022/01/11 10:52:38;;;;;;;38.78;19.45;;;2.30;71.10;;;;;;5073844;28;20056;-71
2022/01/11 10:55:06;;;;;;;37.40;20.73;;;2.30;70.70;;;;;;5074089;28;20120;-72
2022/01/11 10:57:37;;;;;;;34.70;18.85;;;2.30;70.90;;;;;;5073585;28;20443;-70
2022/01/11 11:00:06;;;;;;;37.92;19.90;;;2.30;71.20;;;;;;5073730;28;20473;-73
2022/01/11 11:02:32;;;;;;;36.90;20.58;;;2.40;71.70;;;;;;5073388;28;20074;-71
2022/01/11 11:04:59;;;;;;;38.70;20.65;;;2.40;71.60;;;;;;5073941;28;20384;-71
2022/01/11 11:07:27;;;;;;;37.20;20.85;;;2.50;71.40;;;;;;5073630;28;20449;-71
2022/01/11 11:09:53;;;;;;;39.78;20.13;;;2.60;71.10;;;;;;5073541;28;20501;-72
2022/01/11 11:12:23;;;;;;;37.72;20.90;;;2.70;69.90;;;;;;5072485;28;20028;-71
2022/01/11 11:14:49;;;;;;;44.70;22.10;;;2.80;69.70;;;;;;5073416;28;20020;-71
2022/01/11 11:17:36;;;;;;;36.25;19.95;;;2.90;68.90;;;;;;5073734;28;20486;-71
2022/01/11 11:20:10;;;;;;;35.70;20.60;;;3.00;69.10;;;;;;5072455;28;20052;-71
2022/01/11 11:22:35;;;;;;;36.30;19.90;;;3.10;67.40;;;;;;5073200;28;20067;-71
2022/01/11 11:25:03;;;;;;;37.80;21.30;;;3.00;67.10;;;;;;5055609;28;20449;-71
2022/01/11 11:27:47;;;;;;;38.35;21.23;;;3.10;68.00;;;;;;5073046;28;20025;-71
2022/01/11 11:30:14;;;;;;;42.15;21.23;;;3.20;67.10;;;;;;5073462;28;20028;-71
2022/01/11 11:32:41;;;;;;;41.47;21.38;;;3.10;66.00;;;;;;5072914;28;20024;-71
2022/01/11 11:35:07;;;;;;;36.40;20.80;;;3.00;66.30;;;;;;5073360;28;20074;-71
2022/01/11 11:37:37;;;;;;;36.70;21.08;;;2.90;66.80;;;;;;5072806;28;20071;-71
2022/01/11 11:40:08;;;;;;;36.25;20.63;;;2.80;67.10;;;;;;5056007;28;20147;-71
2022/01/11 11:42:35;;;;;;;37.83;19.98;;;2.70;67.70;;;;;;5072518;28;20047;-71
2022/01/11 11:45:16;;;;;;;37.88;19.85;;;2.60;67.60;;;;;;5073093;28;20028;-71
2022/01/11 11:47:42;;;;;;;;;;;2.40;68.60;;;;;;5073164;28;20026;-71
2022/01/11 11:50:14;;;;;;;39.70;19.98;;;2.30;68.50;;;;;;5072945;28;19913;-71
2022/01/11 11:52:42;;;;;;;42.67;22.65;;;2.20;68.40;;;;;;5072537;28;20189;-71
2022/01/11 11:55:28;;;;;;;38.03;20.20;;;2.20;69.10;;;;;;5072953;28;20119;-72
2022/01/11 11:58:02;;;;;;;36.58;20.83;;;2.10;69.20;;;;;;5073068;28;20055;-71
2022/01/11 12:00:36;;;;;;;39.95;20.50;;;2.10;69.80;;;;;;5072462;28;20029;-70
2022/01/11 12:03:24;;;;;;;37.67;20.00;;;2.20;69.90;;;;;;5073021;28;20402;-71
2022/01/11 12:05:54;;;;;;;36.85;21.02;;;2.20;69.80;;;;;;5072614;28;20492;-70
2022/01/11 12:08:32;;;;;;;41.35;20.48;;;2.10;69.70;;;;;;5072851;28;20063;-71
2022/01/11 12:11:02;;;;;;;37.92;21.25;;;2.10;70.10;;;;;;5072932;28;20029;-71
2022/01/11 12:13:55;;;;;;;40.70;21.13;;;2.10;70.70;;;;;;5072303;28;20032;-72
2022/01/11 12:16:40;;;;;;;40.35;22.00;;;2.00;71.00;;;;;;5072836;28;20393;-70
2022/01/11 12:19:12;;;;;;;37.58;20.20;;;2.00;71.50;;;;;;5054913;28;20035;-72
2022/01/11 12:22:05;;;;;;;41.47;20.67;;;1.90;72.70;;;;;;5071822;28;20094;-71
2022/01/11 12:24:36;;;;;;;41.75;21.05;;;1.80;72.40;;;;;;5071699;28;20450;-71
2022/01/11 12:27:02;;;;;;;;;;;1.80;73.30;;;;;;5072613;28;20037;-70
2022/01/11 12:29:28;;;;;;;36.00;19.58;;;1.80;72.70;;;;;;5072059;28;20349;-70
2022/01/11 12:31:56;;;;;;;34.13;18.90;;;1.80;72.90;;;;;;5072706;28;20083;-72
2022/01/11 12:34:46;;;;;;;37.75;20.70;;;1.80;72.60;;;;;;5072766;28;20031;-71
2022/01/11 12:37:33;;;;;;;40.75;20.70;;;1.80;72.00;;;;;;5072592;28;20028;-71
2022/01/11 12:40:17;;;;;;;38.70;20.90;;;1.80;71.90;;;;;;5072540;28;20043;-72
2022/01/11 12:43:01;;;;;;;41.53;20.85;;;1.70;72.00;;;;;;5072003;28;20040;-73
2022/01/11 12:45:52;;;;;;;41.80;21.15;;;1.70;72.40;;;;;;5072036;28;20054;-71
2022/01/11 12:48:42;;;;;;;38.75;21.67;;;1.60;73.20;;;;;;5072253;28;20411;-71